createdAt,value
2024-02-27T00:00:39.385Z,100002.97
2024-02-27T00:03:08.420Z,99997.97
2024-02-27T00:05:36.162Z,99995.56
2024-02-27T00:08:03.985Z,100000.13
2024-02-27T00:10:31.599Z,99993.78
2024-02-27T00:12:59.349Z,99996.91
2024-02-27T00:15:27.023Z,99989.38
2024-02-27T00:17:55.206Z,99977.72
2024-02-27T00:20:23.730Z,99974.25
2024-02-27T00:22:51.216Z,99977.13
2024-02-27T00:25:20.619Z,99971.75
2024-02-27T00:27:48.562Z,99955.19
2024-02-27T00:30:16.345Z,99973.28
2024-02-27T00:32:43.921Z,99972.22
2024-02-27T00:35:11.553Z,99967.47
2024-02-27T00:37:40.279Z,99970.69
2024-02-27T00:40:09.368Z,99966.03
2024-02-27T00:42:37.218Z,99968.78
2024-02-27T00:45:05.607Z,99949.22
2024-02-27T00:47:33.272Z,99947.34
2024-02-27T00:50:00.854Z,99934.94
2024-02-27T00:52:28.860Z,99937.69
2024-02-27T00:54:56.431Z,99933.28
2024-02-27T00:57:24.325Z,99926.84
2024-02-27T00:59:52.855Z,99933.53
2024-02-27T01:02:20.975Z,99918.25
2024-02-27T01:04:48.656Z,99915.97
2024-02-27T01:07:16.430Z,99925.50
2024-02-27T01:09:44.031Z,99926.00
2024-02-27T01:12:11.688Z,99919.94
2024-02-27T01:14:39.235Z,99906.38
2024-02-27T01:17:07.259Z,99904.66
2024-02-27T01:19:34.908Z,99910.59
2024-02-27T01:22:02.474Z,99918.63
2024-02-27T01:24:30.125Z,99923.50
2024-02-27T01:26:57.775Z,99918.03
2024-02-27T01:29:25.394Z,99924.81
2024-02-27T01:31:53.929Z,99931.72
2024-02-27T01:34:21.844Z,99922.81
2024-02-27T01:36:49.751Z,99919.69
2024-02-27T01:39:17.366Z,99930.38
2024-02-27T01:41:50.372Z,99918.63
2024-02-27T01:44:18.152Z,99923.00
2024-02-27T01:46:47.321Z,99916.72
2024-02-27T01:49:16.044Z,99916.47
2024-02-27T01:51:46.127Z,99914.56
2024-02-27T01:54:18.981Z,99922.78
2024-02-27T01:56:49.960Z,99915.50
2024-02-27T01:59:20.439Z,99908.72
2024-02-27T02:01:52.971Z,99916.22
2024-02-27T02:04:20.785Z,99915.06
2024-02-27T02:06:48.436Z,99911.59
2024-02-27T02:09:16.264Z,99922.69
2024-02-27T02:11:47.216Z,99917.28
2024-02-27T02:14:15.000Z,99909.19
2024-02-27T02:16:42.595Z,99928.94
2024-02-27T02:19:11.280Z,99910.47
2024-02-27T02:21:38.962Z,99910.16
2024-02-27T02:24:09.140Z,99919.16
2024-02-27T02:26:37.852Z,99918.72
2024-02-27T02:29:06.689Z,99909.66
2024-02-27T02:31:36.162Z,99907.97
2024-02-27T02:34:04.284Z,99908.75
2024-02-27T02:36:32.368Z,99906.84
2024-02-27T02:38:59.973Z,99895.25
2024-02-27T02:41:27.577Z,99877.75
2024-02-27T02:43:55.262Z,99852.88
2024-02-27T02:46:22.785Z,99854.19
2024-02-27T02:48:50.467Z,99844.31
2024-02-27T02:51:18.353Z,99832.88
2024-02-27T02:53:46.352Z,99832.03
2024-02-27T02:56:14.317Z,99839.78
2024-02-27T02:58:41.788Z,99853.69
2024-02-27T03:01:09.359Z,99842.03
2024-02-27T03:03:37.337Z,99855.44
2024-02-27T03:06:05.940Z,99850.81
2024-02-27T03:08:33.594Z,99839.00
2024-02-27T03:11:01.178Z,99853.69
2024-02-27T03:13:28.899Z,99849.66
2024-02-27T03:15:57.875Z,99869.09
2024-02-27T03:18:25.944Z,99869.75
2024-02-27T03:20:53.664Z,99867.47
2024-02-27T03:23:21.295Z,99876.06
2024-02-27T03:25:49.258Z,99870.69
2024-02-27T03:28:16.727Z,99871.38
2024-02-27T03:30:44.395Z,99884.59
2024-02-27T03:33:12.604Z,99868.88
2024-02-27T03:35:41.304Z,99874.84
2024-02-27T03:38:09.750Z,99870.53
2024-02-27T03:40:37.435Z,99886.06
2024-02-27T03:43:05.496Z,99874.84
2024-02-27T03:45:33.219Z,99871.25
2024-02-27T03:48:00.953Z,99858.38
2024-02-27T03:50:28.584Z,99858.84
2024-02-27T03:52:56.103Z,99851.69
2024-02-27T03:55:23.610Z,99858.94
2024-02-27T03:57:51.305Z,99861.84
2024-02-27T04:00:19.758Z,99872.56
2024-02-27T04:02:47.308Z,99873.13
2024-02-27T04:05:15.562Z,99872.94
2024-02-27T04:07:43.614Z,99863.84
2024-02-27T04:10:11.873Z,99862.16
2024-02-27T04:12:39.476Z,99857.31
2024-02-27T04:15:08.401Z,99850.38
2024-02-27T04:20:07.074Z,99859.59
2024-02-27T04:22:34.893Z,99864.63
2024-02-27T04:25:02.921Z,99857.22
2024-02-27T04:27:30.621Z,99862.91
2024-02-27T04:29:58.344Z,99864.31
2024-02-27T04:32:26.000Z,99851.75
2024-02-27T04:34:54.057Z,99862.63
2024-02-27T04:37:21.596Z,99850.75
2024-02-27T04:39:50.043Z,99849.78
2024-02-27T04:42:17.726Z,99852.03
2024-02-27T04:44:45.677Z,99848.19
2024-02-27T04:47:13.394Z,99862.75
2024-02-27T04:49:41.128Z,99867.09
2024-02-27T04:52:09.178Z,99869.19
2024-02-27T04:54:36.882Z,99877.84
2024-02-27T04:57:05.011Z,99874.31
2024-02-27T04:59:32.523Z,99884.25
2024-02-27T05:02:00.166Z,99878.84
2024-02-27T05:04:27.910Z,99882.56
2024-02-27T05:06:55.936Z,99876.72
2024-02-27T05:09:23.701Z,99884.06
2024-02-27T05:11:51.264Z,99880.28
2024-02-27T05:14:18.813Z,99891.16
2024-02-27T05:16:46.359Z,99893.81
2024-02-27T05:19:14.049Z,99907.16
2024-02-27T05:21:42.236Z,99921.56
2024-02-27T05:24:09.838Z,99907.31
2024-02-27T05:26:38.132Z,99919.56
2024-02-27T05:29:06.267Z,99903.47
2024-02-27T05:31:36.277Z,99915.19
2024-02-27T05:34:04.511Z,99905.75
2024-02-27T05:36:32.557Z,99904.19
2024-02-27T05:39:00.354Z,99921.59
2024-02-27T05:41:27.984Z,99923.88
2024-02-27T05:43:56.356Z,99915.88
2024-02-27T05:46:24.580Z,99912.56
2024-02-27T05:48:52.369Z,99915.75
2024-02-27T05:51:22.001Z,99923.25
2024-02-27T05:53:49.670Z,99910.81
2024-02-27T05:56:22.135Z,99918.47
2024-02-27T05:58:49.876Z,99914.66
2024-02-27T06:01:18.813Z,99916.19
2024-02-27T06:03:46.677Z,99914.66
2024-02-27T06:06:14.608Z,99920.59
2024-02-27T06:08:42.241Z,99931.56
2024-02-27T06:11:10.048Z,99931.59
2024-02-27T06:13:37.752Z,99935.88
2024-02-27T06:16:05.691Z,99941.22
2024-02-27T06:18:36.331Z,99942.44
2024-02-27T06:21:25.052Z,99950.28
2024-02-27T06:23:52.922Z,99961.56
2024-02-27T06:26:21.182Z,99956.00
2024-02-27T06:28:49.171Z,99961.47
2024-02-27T06:31:17.242Z,99970.41
2024-02-27T06:33:45.459Z,99965.78
2024-02-27T06:36:13.460Z,99960.41
2024-02-27T06:38:41.460Z,99972.06
2024-02-27T06:41:09.352Z,99954.44
2024-02-27T06:43:37.342Z,99966.22
2024-02-27T06:46:07.161Z,99995.19
2024-02-27T06:48:35.460Z,100000.38
2024-02-27T06:51:07.603Z,100009.66
2024-02-27T06:53:37.355Z,100006.19
2024-02-27T06:56:05.331Z,99996.06
2024-02-27T06:58:33.209Z,100004.00
2024-02-27T07:01:00.808Z,99977.53
2024-02-27T07:03:28.986Z,100024.44
2024-02-27T07:05:59.016Z,100052.06
2024-02-27T07:08:27.471Z,100058.63
2024-02-27T07:10:55.665Z,100074.59
2024-02-27T07:13:23.341Z,100087.97
2024-02-27T07:15:51.352Z,100085.34
2024-02-27T07:18:20.498Z,100081.03
2024-02-27T07:20:49.022Z,100101.81
2024-02-27T07:23:16.813Z,100083.88
2024-02-27T07:25:45.165Z,100093.88
2024-02-27T07:28:17.416Z,100093.66
2024-02-27T07:30:52.311Z,100095.72
2024-02-27T07:33:20.410Z,100086.91
2024-02-27T07:35:48.474Z,100087.47
2024-02-27T07:38:16.041Z,100091.91
2024-02-27T07:40:43.797Z,100111.81
2024-02-27T07:43:12.679Z,100114.56
2024-02-27T07:45:40.447Z,100116.34
2024-02-27T07:48:08.549Z,100125.06
2024-02-27T07:50:36.261Z,100122.03
2024-02-27T07:53:04.114Z,100118.50
2024-02-27T07:55:31.664Z,100126.84
2024-02-27T07:57:59.253Z,100132.47
2024-02-27T08:00:27.365Z,100115.28
2024-02-27T08:02:54.980Z,100119.91
2024-02-27T08:05:27.173Z,100127.66
2024-02-27T08:07:54.845Z,100128.25
2024-02-27T08:10:22.560Z,100126.69
2024-02-27T08:12:50.139Z,100129.56
2024-02-27T08:15:17.826Z,100138.28
2024-02-27T08:17:45.496Z,100137.34
2024-02-27T08:20:13.653Z,100137.31
2024-02-27T08:22:41.902Z,100131.94
2024-02-27T08:25:09.979Z,100140.44
2024-02-27T08:27:38.103Z,100152.75
2024-02-27T08:30:06.536Z,100159.91
2024-02-27T08:32:34.783Z,100162.16
2024-02-27T08:35:03.016Z,100165.97
2024-02-27T08:37:31.371Z,100165.38
2024-02-27T08:40:00.073Z,100161.09
2024-02-27T08:42:28.295Z,100159.88
2024-02-27T08:44:56.221Z,100160.25
2024-02-27T08:47:26.754Z,100168.06
2024-02-27T08:49:54.460Z,100174.16
2024-02-27T08:52:22.628Z,100177.91
2024-02-27T08:54:50.827Z,100175.53
2024-02-27T08:57:18.528Z,100183.41
2024-02-27T08:59:47.900Z,100187.09
2024-02-27T09:02:18.693Z,100176.97
2024-02-27T09:04:47.146Z,100185.03
2024-02-27T09:07:15.870Z,100186.94
2024-02-27T09:09:47.361Z,100198.09
2024-02-27T09:12:14.986Z,100185.28
2024-02-27T09:14:44.219Z,100187.25
2024-02-27T09:17:12.077Z,100194.94
2024-02-27T09:19:40.366Z,100187.09
2024-02-27T09:22:08.237Z,100200.34
2024-02-27T09:24:36.589Z,100188.66
2024-02-27T09:27:06.104Z,100200.31
2024-02-27T09:29:35.276Z,100204.16
2024-02-27T09:32:03.796Z,100195.75
2024-02-27T09:34:31.437Z,100208.69
2024-02-27T09:36:59.208Z,100209.03
2024-02-27T09:39:27.002Z,100206.50
2024-02-27T09:42:07.775Z,100206.38
2024-02-27T09:44:39.613Z,100209.81
2024-02-27T09:47:09.001Z,100217.44
2024-02-27T09:49:46.772Z,100214.44
2024-02-27T09:52:16.498Z,100213.50
2024-02-27T09:54:47.373Z,100207.44
2024-02-27T09:57:16.449Z,100206.19
2024-02-27T09:59:44.278Z,100222.06
2024-02-27T10:02:19.244Z,100220.78
2024-02-27T10:04:47.292Z,100208.97
2024-02-27T10:07:16.442Z,100225.41
2024-02-27T10:09:48.151Z,100221.72
2024-02-27T10:12:16.047Z,100237.69
2024-02-27T10:14:43.693Z,100224.78
2024-02-27T10:17:12.289Z,100237.53
2024-02-27T10:19:40.454Z,100231.56
2024-02-27T10:22:08.344Z,100227.66
2024-02-27T10:24:36.145Z,100245.31
2024-02-27T10:27:09.194Z,100232.41
2024-02-27T10:29:37.364Z,100240.25
2024-02-27T10:32:07.338Z,100248.97
2024-02-27T10:34:35.245Z,100240.66
2024-02-27T10:37:06.348Z,100246.94
2024-02-27T10:39:34.569Z,100242.75
2024-02-27T10:42:02.770Z,100245.81
2024-02-27T10:44:30.593Z,100254.84
2024-02-27T10:47:01.194Z,100255.41
2024-02-27T10:49:29.647Z,100254.09
2024-02-27T10:52:01.523Z,100262.59
2024-02-27T10:54:30.824Z,100254.84
2024-02-27T10:56:58.947Z,100266.91
2024-02-27T10:59:28.959Z,100263.34
2024-02-27T11:01:59.637Z,100254.72
2024-02-27T11:04:35.890Z,100256.84
2024-02-27T11:07:05.481Z,100267.13
2024-02-27T11:09:34.674Z,100260.84
2024-02-27T11:12:07.850Z,100257.94
2024-02-27T11:14:40.435Z,100263.13
2024-02-27T11:17:15.451Z,100268.44
2024-02-27T11:19:49.387Z,100264.59
2024-02-27T11:22:22.849Z,100269.78
2024-02-27T11:24:51.330Z,100268.72
2024-02-27T11:27:23.578Z,100267.53
2024-02-27T11:29:53.638Z,100274.91
2024-02-27T11:32:22.040Z,100273.56
2024-02-27T11:34:49.798Z,100272.63
2024-02-27T11:37:22.199Z,100269.97
2024-02-27T11:39:52.395Z,100261.66
2024-02-27T11:42:40.923Z,100263.91
2024-02-27T11:45:13.774Z,100266.31
2024-02-27T11:47:54.777Z,100275.94
2024-02-27T11:50:39.579Z,100271.09
2024-02-27T11:53:16.847Z,100271.09
2024-02-27T11:55:54.987Z,100267.06
2024-02-27T11:58:23.205Z,100274.28
2024-02-27T12:00:55.002Z,100277.97
2024-02-27T12:03:23.208Z,100265.78
2024-02-27T12:06:00.212Z,100272.09
2024-02-27T12:08:28.474Z,100280.91
2024-02-27T12:10:56.604Z,100283.69
2024-02-27T12:13:28.157Z,100290.69
2024-02-27T12:16:00.465Z,100287.66
2024-02-27T12:18:28.290Z,100277.00
2024-02-27T12:20:56.033Z,100287.00
2024-02-27T12:23:24.441Z,100289.53
2024-02-27T12:25:52.485Z,100282.25
2024-02-27T12:28:20.257Z,100290.25
2024-02-27T12:30:51.334Z,100282.91
2024-02-27T12:33:20.704Z,100280.66
2024-02-27T12:35:48.434Z,100280.63
2024-02-27T12:38:16.130Z,100273.44
2024-02-27T12:40:44.711Z,100275.13
2024-02-27T12:43:12.559Z,100273.59
2024-02-27T12:45:40.625Z,100267.44
2024-02-27T12:48:09.055Z,100262.44
2024-02-27T12:50:38.695Z,100256.50
2024-02-27T12:53:12.793Z,100272.13
2024-02-27T12:55:42.498Z,100269.28
2024-02-27T12:58:10.654Z,100255.03
2024-02-27T13:00:39.056Z,100266.84
2024-02-27T13:03:07.351Z,100264.22
2024-02-27T13:05:35.499Z,100266.22
2024-02-27T13:08:05.650Z,100266.59
2024-02-27T13:10:34.537Z,100261.69
2024-02-27T13:13:18.953Z,100261.00
2024-02-27T13:15:51.809Z,100265.94
2024-02-27T13:18:20.005Z,100255.34
2024-02-27T13:20:48.176Z,100258.28
2024-02-27T13:23:24.915Z,100253.25
2024-02-27T13:25:59.047Z,100247.88
2024-02-27T13:28:29.135Z,100253.25
2024-02-27T13:30:57.644Z,100255.53
2024-02-27T13:33:27.785Z,100251.69
2024-02-27T13:35:56.393Z,100255.94
2024-02-27T13:38:24.780Z,100254.72
2024-02-27T13:40:54.562Z,100257.56
2024-02-27T13:43:23.324Z,100258.03
2024-02-27T13:45:51.873Z,100247.69
2024-02-27T13:48:19.882Z,100260.16
2024-02-27T13:50:48.724Z,100259.09
2024-02-27T13:53:17.344Z,100252.16
2024-02-27T13:55:45.563Z,100248.56
2024-02-27T13:58:13.200Z,100248.56
2024-02-27T14:00:41.467Z,100253.13
2024-02-27T14:03:10.562Z,100259.09
2024-02-27T14:05:39.341Z,100258.13
2024-02-27T14:08:07.820Z,100255.09
2024-02-27T14:10:39.527Z,100249.88
2024-02-27T14:13:07.441Z,100246.41
2024-02-27T14:15:37.525Z,100241.28
2024-02-27T14:18:06.629Z,100245.84
2024-02-27T14:20:34.939Z,100246.63
2024-02-27T14:23:02.944Z,100258.06
2024-02-27T14:25:31.427Z,100253.13
2024-02-27T14:27:59.780Z,100267.66
2024-02-27T14:30:27.814Z,100253.63
2024-02-27T14:32:55.837Z,100266.19
2024-02-27T14:35:24.269Z,100260.38
2024-02-27T14:37:52.303Z,100255.13
2024-02-27T14:40:20.827Z,100251.63
2024-02-27T14:42:49.619Z,100251.00
2024-02-27T14:45:19.923Z,100254.34
2024-02-27T14:47:47.764Z,100261.59
2024-02-27T14:50:15.611Z,100265.41
2024-02-27T14:52:43.370Z,100251.09
2024-02-27T14:55:11.243Z,100251.00
2024-02-27T14:57:39.434Z,100257.16
2024-02-27T15:00:08.504Z,100246.78
2024-02-27T15:02:36.191Z,100262.03
2024-02-27T15:05:03.945Z,100259.97
2024-02-27T15:07:31.728Z,100254.53
2024-02-27T15:09:59.780Z,100264.69
2024-02-27T15:12:29.041Z,100262.47
2024-02-27T15:14:58.174Z,100264.19
2024-02-27T15:17:25.726Z,100258.69
2024-02-27T15:19:54.506Z,100252.53
2024-02-27T15:22:22.171Z,100261.53
2024-02-27T15:24:50.728Z,100252.63
2024-02-27T15:27:18.347Z,100254.22
2024-02-27T15:29:46.420Z,100271.63
2024-02-27T15:32:14.403Z,100277.72
2024-02-27T15:34:44.483Z,100272.69
2024-02-27T15:37:12.203Z,100275.03
2024-02-27T15:39:40.047Z,100274.97
2024-02-27T15:42:09.272Z,100275.41
2024-02-27T15:44:37.062Z,100287.47
2024-02-27T15:47:05.202Z,100280.28
2024-02-27T15:49:32.838Z,100274.31
2024-02-27T15:52:00.687Z,100284.66
2024-02-27T15:54:28.352Z,100292.50
2024-02-27T15:56:56.132Z,100292.78
2024-02-27T15:59:24.077Z,100302.31
2024-02-27T16:01:51.640Z,100303.53
2024-02-27T16:04:57.094Z,100299.94
2024-02-27T16:07:33.227Z,100310.97
2024-02-27T16:10:05.038Z,100296.59
2024-02-27T16:12:36.289Z,100306.56
2024-02-27T16:15:07.573Z,100310.72
2024-02-27T16:17:35.311Z,100318.66
2024-02-27T16:20:05.388Z,100320.41
2024-02-27T16:22:37.155Z,100308.66
2024-02-27T16:25:05.779Z,100318.50
2024-02-27T16:27:33.451Z,100332.16
2024-02-27T16:30:01.587Z,100330.16
2024-02-27T16:32:29.228Z,100330.91
2024-02-27T16:34:58.320Z,100322.56
2024-02-27T16:37:27.461Z,100334.75
2024-02-27T16:39:55.527Z,100337.84
2024-02-27T16:42:23.252Z,100342.34
2024-02-27T16:44:50.823Z,100343.72
2024-02-27T16:47:19.636Z,100339.28
2024-02-27T16:49:48.678Z,100351.19
2024-02-27T16:52:16.529Z,100350.25
2024-02-27T16:54:47.800Z,100354.47
2024-02-27T16:57:15.620Z,100346.94
2024-02-27T16:59:43.198Z,100348.75
2024-02-27T17:02:12.110Z,100355.06
2024-02-27T17:04:40.552Z,100360.88
2024-02-27T17:07:08.752Z,100359.38
2024-02-27T17:09:36.971Z,100350.66
2024-02-27T17:12:05.559Z,100352.44
2024-02-27T17:14:34.680Z,100357.28
2024-02-27T17:17:02.896Z,100352.63
2024-02-27T17:19:30.720Z,100369.84
2024-02-27T17:21:58.440Z,100358.09
2024-02-27T17:24:26.160Z,100361.47
2024-02-27T17:26:53.758Z,100353.31
2024-02-27T17:29:21.298Z,100355.88
2024-02-27T17:31:49.185Z,100344.81
2024-02-27T17:34:18.277Z,100339.88
2024-02-27T17:36:46.236Z,100342.44
2024-02-27T17:39:14.855Z,100350.47
2024-02-27T17:41:43.330Z,100359.91
2024-02-27T17:44:10.974Z,100364.34
2024-02-27T17:46:38.538Z,100381.69
2024-02-27T17:49:07.903Z,100384.03
2024-02-27T17:51:35.503Z,100384.88
2024-02-27T17:54:03.183Z,100393.97
2024-02-27T17:56:30.816Z,100386.66
2024-02-27T17:58:58.311Z,100388.41
2024-02-27T18:01:26.431Z,100390.72
2024-02-27T18:03:54.226Z,100391.59
2024-02-27T18:06:21.932Z,100393.47
2024-02-27T18:08:50.700Z,100397.03
2024-02-27T18:11:19.239Z,100392.25
2024-02-27T18:13:48.229Z,100400.22
2024-02-27T18:16:15.928Z,100396.88
2024-02-27T18:18:43.671Z,100397.25
2024-02-27T18:21:12.391Z,100403.59
2024-02-27T18:23:40.076Z,100405.84
2024-02-27T18:26:09.061Z,100408.41
2024-02-27T18:28:36.614Z,100419.34
2024-02-27T18:31:04.455Z,100422.63
2024-02-27T18:33:32.668Z,100425.91
2024-02-27T18:36:01.063Z,100430.81
2024-02-27T18:38:30.460Z,100430.75
2024-02-27T18:40:58.866Z,100427.69
2024-02-27T18:43:28.037Z,100438.09
2024-02-27T18:45:55.749Z,100440.22
2024-02-27T18:48:24.505Z,100447.56
2024-02-27T18:50:52.185Z,100436.91
2024-02-27T18:53:20.279Z,100446.44
2024-02-27T18:55:48.545Z,100449.94
2024-02-27T18:58:16.448Z,100460.84
2024-02-27T19:00:44.661Z,100463.81
2024-02-27T19:03:13.162Z,100473.75
2024-02-27T19:05:40.906Z,100477.84
2024-02-27T19:08:09.578Z,100472.91
2024-02-27T19:10:37.409Z,100469.91
2024-02-27T19:13:11.199Z,100490.97
2024-02-27T19:15:41.213Z,100491.69
2024-02-27T19:18:08.929Z,100488.59
2024-02-27T19:20:36.540Z,100488.94
2024-02-27T19:23:04.689Z,100505.06
2024-02-27T19:25:38.569Z,100497.44
2024-02-27T19:28:07.025Z,100501.59
2024-02-27T19:30:35.102Z,100512.84
2024-02-27T19:33:03.370Z,100512.41
2024-02-27T19:35:31.150Z,100516.56
2024-02-27T19:38:06.908Z,100518.84
2024-02-27T19:40:41.426Z,100523.03
2024-02-27T19:43:09.394Z,100520.84
2024-02-27T19:45:37.840Z,100517.06
2024-02-27T19:48:07.179Z,100513.56
2024-02-27T19:50:35.575Z,100527.00
2024-02-27T19:53:08.031Z,100534.88
2024-02-27T19:55:38.815Z,100540.97
2024-02-27T19:58:06.538Z,100542.41
2024-02-27T20:00:34.279Z,100529.34
2024-02-27T20:03:02.843Z,100538.69
2024-02-27T20:05:31.247Z,100549.22
2024-02-27T20:07:59.128Z,100554.13
2024-02-27T20:10:27.074Z,100545.66
2024-02-27T20:12:55.191Z,100552.09
2024-02-27T20:15:23.607Z,100554.94
2024-02-27T20:17:52.572Z,100559.13
2024-02-27T20:20:20.651Z,100555.44
2024-02-27T20:22:48.829Z,100568.72
2024-02-27T20:25:16.720Z,100554.22
2024-02-27T20:27:45.707Z,100564.75
2024-02-27T20:30:24.721Z,100565.97
2024-02-27T20:32:53.557Z,100569.06
2024-02-27T20:35:22.998Z,100572.78
2024-02-27T20:37:50.803Z,100570.75
2024-02-27T20:40:19.735Z,100574.50
2024-02-27T20:42:48.485Z,100580.31
2024-02-27T20:45:19.607Z,100572.78
2024-02-27T20:47:47.982Z,100574.56
2024-02-27T20:50:16.365Z,100573.38
2024-02-27T20:52:44.353Z,100570.41
2024-02-27T20:55:13.058Z,100571.13
2024-02-27T20:57:41.138Z,100574.81
2024-02-27T21:00:10.474Z,100570.50
2024-02-27T21:02:39.777Z,100560.34
2024-02-27T21:05:09.409Z,100569.31
2024-02-27T21:07:37.618Z,100573.63
2024-02-27T21:10:07.671Z,100565.75
2024-02-27T21:12:36.528Z,100569.31
2024-02-27T21:15:07.522Z,100575.56
2024-02-27T21:17:35.896Z,100576.00
2024-02-27T21:20:04.689Z,100567.03
2024-02-27T21:22:33.828Z,100568.72
2024-02-27T21:25:01.704Z,100565.28
2024-02-27T21:27:29.670Z,100570.75
2024-02-27T21:29:58.627Z,100561.19
2024-02-27T21:32:26.444Z,100561.66
2024-02-27T21:34:54.933Z,100563.84
2024-02-27T21:37:23.264Z,100565.88
2024-02-27T21:39:54.191Z,100558.09
2024-02-27T21:42:23.194Z,100571.13
2024-02-27T21:44:52.767Z,100565.25
2024-02-27T21:47:22.593Z,100563.19
2024-02-27T21:49:50.857Z,100570.03
2024-02-27T21:52:18.807Z,100572.53
2024-02-27T21:54:50.300Z,100564.53
2024-02-27T21:57:18.938Z,100565.72
2024-02-27T21:59:47.278Z,100561.78
2024-02-27T22:02:16.390Z,100567.63
2024-02-27T22:04:44.371Z,100569.06
2024-02-27T22:07:13.193Z,100578.19
2024-02-27T22:09:41.166Z,100573.63
2024-02-27T22:12:09.434Z,100570.13
2024-02-27T22:14:37.349Z,100579.59
2024-02-27T22:17:05.285Z,100587.84
2024-02-27T22:19:34.020Z,100585.13
2024-02-27T22:22:03.130Z,100579.84
2024-02-27T22:24:30.945Z,100582.84
2024-02-27T22:26:58.478Z,100576.72
2024-02-27T22:29:26.903Z,100590.81
2024-02-27T22:31:55.118Z,100598.50
2024-02-27T22:34:23.250Z,100597.75
2024-02-27T22:36:51.387Z,100601.00
2024-02-27T22:39:20.493Z,100610.75
2024-02-27T22:41:48.479Z,100599.44
2024-02-27T22:44:16.448Z,100608.41
2024-02-27T22:46:44.695Z,100620.72
2024-02-27T22:49:13.517Z,100610.59
2024-02-27T22:51:42.084Z,100611.19
2024-02-27T22:54:10.154Z,100608.31
2024-02-27T22:56:37.856Z,100612.25
2024-02-27T22:59:05.364Z,100602.22
2024-02-27T23:01:33.071Z,100608.03
2024-02-27T23:04:01.239Z,100612.84
2024-02-27T23:06:28.857Z,100619.63
2024-02-27T23:08:56.409Z,100616.63
2024-02-27T23:11:25.232Z,100616.78
2024-02-27T23:13:53.232Z,100623.00
2024-02-27T23:16:22.613Z,100626.63
2024-02-27T23:18:50.600Z,100619.75
2024-02-27T23:21:19.273Z,100630.94
2024-02-27T23:23:47.116Z,100623.38
2024-02-27T23:26:18.080Z,100627.56
2024-02-27T23:28:48.965Z,100633.19
2024-02-27T23:31:17.232Z,100646.47
2024-02-27T23:33:45.236Z,100649.09
2024-02-27T23:36:14.204Z,100660.25
2024-02-27T23:38:42.374Z,100659.03
2024-02-27T23:41:11.492Z,100669.75
2024-02-27T23:43:42.622Z,100670.25
2024-02-27T23:46:15.865Z,100667.72
2024-02-27T23:48:44.115Z,100671.44
2024-02-27T23:51:12.046Z,100674.06
2024-02-27T23:53:40.382Z,100679.31
2024-02-27T23:56:09.621Z,100682.63
2024-02-27T23:58:37.710Z,100673.66
